Time;durP1;ratioP1;P1;durP2;ratioP2;P2;SDS_P1;SDS_P2;PMS_P1;PMS_P2;Temp;Humidity;BMP_temperature;BMP_pressure;BME280_temperature;BME280_humidity;BME280_pressure;Samples;Min_cycle;Max_cycle;Signal;HPM_P1;HPM_P2
2021/04/17 00:04:26;;;;;;;3.05;2.05;;;;;;;;;;10346554;28;20081;-88
2021/04/17 00:09:41;;;;;;;2.38;1.88;;;;;;;;;;10346731;28;20027;-88
2021/04/17 00:14:52;;;;;;;3.47;3.08;;;;;;;;;;10346491;28;20485;-88
2021/04/17 00:19:54;;;;;;;2.92;2.40;;;;;;;;;;10347224;28;20026;-88
2021/04/17 00:24:55;;;;;;;3.42;3.10;;;;;;;;;;10353361;28;20042;-88
2021/04/17 00:29:59;;;;;;;5.85;3.45;;;;;;;;;;10363097;28;20030;-88
2021/04/17 00:35:02;;;;;;;2.60;2.20;;;;;;;;;;10345085;28;20117;-88
2021/04/17 00:40:34;;;;;;;;;;;;;;;;;;;;;
2021/04/17 00:45:53;;;;;;;3.80;2.88;;;;;;;;;;10344729;28;20062;-88
2021/04/17 00:51:00;;;;;;;2.93;2.40;;;;;;;;;;10346736;28;20393;-88
2021/04/17 00:56:13;;;;;;;2.80;2.05;;;;;;;;;;10344999;28;20040;-88
2021/04/17 01:01:23;;;;;;;3.42;2.13;;;;;;;;;;10342758;28;20022;-87
2021/04/17 01:06:31;;;;;;;2.88;2.17;;;;;;;;;;10342496;28;20053;-87
2021/04/17 01:11:43;;;;;;;3.38;2.33;;;;;;;;;;10343616;28;20028;-88
2021/04/17 01:16:57;;;;;;;2.25;1.83;;;;;;;;;;10342308;28;20038;-88
2021/04/17 01:22:18;;;;;;;2.40;1.55;;;;;;;;;;10341854;28;20474;-88
2021/04/17 01:27:19;;;;;;;2.55;1.58;;;;;;;;;;10341001;28;20030;-88
2021/04/17 01:32:32;;;;;;;3.42;2.00;;;;;;;;;;10342264;28;20057;-88
2021/04/17 01:37:39;;;;;;;2.33;1.60;;;;;;;;;;10340932;28;20030;-88
2021/04/17 01:43:36;;;;;;;3.20;2.03;;;;;;;;;;10341080;28;20120;-88
2021/04/17 01:48:15;;;;;;;2.85;1.88;;;;;;;;;;10345735;28;20033;-88
2021/04/17 01:53:21;;;;;;;1.75;1.42;;;;;;;;;;10340983;28;20029;-88
2021/04/17 01:58:25;;;;;;;2.28;1.83;;;;;;;;;;10341005;28;20038;-88
2021/04/17 02:03:32;;;;;;;2.78;1.83;;;;;;;;;;10340648;28;20030;-88
2021/04/17 02:08:48;;;;;;;2.35;1.63;;;;;;;;;;10341330;28;20105;-88
2021/04/17 02:14:02;;;;;;;2.42;1.70;;;;;;;;;;10348373;28;20113;-88
2021/04/17 02:19:09;;;;;;;2.92;2.00;;;;;;;;;;10347275;28;20030;-88
2021/04/17 02:24:10;;;;;;;2.95;2.15;;;;;;;;;;10348780;28;20034;-88
2021/04/17 02:29:11;;;;;;;2.53;1.85;;;;;;;;;;10351287;28;20092;-88
2021/04/17 02:34:26;;;;;;;2.17;1.45;;;;;;;;;;10349523;28;20039;-88
2021/04/17 02:39:37;;;;;;;2.58;1.80;;;;;;;;;;10347989;28;20049;-88
2021/04/17 02:44:44;;;;;;;2.35;2.00;;;;;;;;;;10373951;28;20042;-88
2021/04/17 02:50:06;;;;;;;2.45;1.65;;;;;;;;;;10347535;28;20058;-88
2021/04/17 02:55:13;;;;;;;3.08;2.35;;;;;;;;;;10372798;23;21098;-84
2021/04/17 03:00:19;;;;;;;3.33;2.28;;;;;;;;;;10375679;28;20037;-84
2021/04/17 03:05:21;;;;;;;2.67;2.10;;;;;;;;;;10373933;28;20098;-85
2021/04/17 03:10:28;;;;;;;3.38;2.40;;;;;;;;;;10354772;28;20159;-86
2021/04/17 03:15:32;;;;;;;3.05;2.20;;;;;;;;;;10354609;28;20026;-84
2021/04/17 03:20:37;;;;;;;2.88;1.98;;;;;;;;;;10351949;28;20050;-85
2021/04/17 03:25:41;;;;;;;3.10;2.42;;;;;;;;;;10351343;28;20453;-85
2021/04/17 03:30:45;;;;;;;3.53;2.58;;;;;;;;;;10352863;28;20062;-86
2021/04/17 03:35:53;;;;;;;2.90;2.60;;;;;;;;;;10350862;28;20381;-85
2021/04/17 03:41:04;;;;;;;4.10;3.00;;;;;;;;;;10351421;28;20109;-86
2021/04/17 03:46:08;;;;;;;2.95;2.40;;;;;;;;;;10352450;28;20493;-86
2021/04/17 03:51:09;;;;;;;3.00;2.03;;;;;;;;;;10350905;28;20038;-86
2021/04/17 03:56:10;;;;;;;3.75;2.78;;;;;;;;;;10358454;28;20042;-86
2021/04/17 04:01:14;;;;;;;2.95;2.00;;;;;;;;;;10349204;28;20022;-85
2021/04/17 04:06:25;;;;;;;3.03;1.90;;;;;;;;;;10350860;28;20040;-86
2021/04/17 04:11:29;;;;;;;3.55;2.72;;;;;;;;;;10351210;28;20031;-85
2021/04/17 04:16:30;;;;;;;4.10;2.78;;;;;;;;;;10349783;28;20121;-85
2021/04/17 04:21:34;;;;;;;3.88;2.67;;;;;;;;;;10359106;28;20113;-85
2021/04/17 04:26:41;;;;;;;2.85;2.20;;;;;;;;;;10353829;28;20432;-86
2021/04/17 04:31:42;;;;;;;2.50;2.00;;;;;;;;;;10347793;28;20030;-86
2021/04/17 04:36:51;;;;;;;3.25;2.30;;;;;;;;;;10346338;28;20467;-85
2021/04/17 04:41:58;;;;;;;2.97;2.00;;;;;;;;;;10348986;28;20048;-85
2021/04/17 04:47:00;;;;;;;5.07;3.05;;;;;;;;;;10349821;28;20034;-85
2021/04/17 04:52:01;;;;;;;2.97;2.40;;;;;;;;;;10347719;28;20126;-85
2021/04/17 04:57:02;;;;;;;2.72;2.28;;;;;;;;;;10348796;28;20030;-86
2021/04/17 05:02:03;;;;;;;4.90;3.10;;;;;;;;;;10348017;28;20045;-87
2021/04/17 05:07:13;;;;;;;2.67;2.20;;;;;;;;;;10345013;28;20030;-87
2021/04/17 05:12:20;;;;;;;5.43;3.50;;;;;;;;;;10348514;28;20026;-86
2021/04/17 05:17:21;;;;;;;4.50;2.55;;;;;;;;;;10349134;28;20018;-87
2021/04/17 05:22:25;;;;;;;3.38;2.25;;;;;;;;;;10353214;28;20026;-85
2021/04/17 05:27:39;;;;;;;;;;;;;;;;;;;;;
2021/04/17 05:32:41;;;;;;;5.13;2.70;;;;;;;;;;10369445;28;20036;-86
2021/04/17 05:37:45;;;;;;;4.57;2.38;;;;;;;;;;10346264;28;20029;-86
2021/04/17 05:42:58;;;;;;;2.47;2.00;;;;;;;;;;10347027;28;20027;-85
2021/04/17 05:48:02;;;;;;;4.57;2.63;;;;;;;;;;10346070;28;20022;-86
2021/04/17 05:53:06;;;;;;;2.67;2.00;;;;;;;;;;10345596;28;20030;-87
2021/04/17 05:58:14;;;;;;;3.40;1.88;;;;;;;;;;10348723;28;20081;-85
2021/04/17 06:03:15;;;;;;;4.25;3.10;;;;;;;;;;10347329;28;20034;-85
2021/04/17 06:08:29;;;;;;;;;;;;;;;;;;;;;
2021/04/17 06:13:32;;;;;;;3.30;2.30;;;;;;;;;;10347922;28;20150;-87
2021/04/17 06:18:44;;;;;;;3.65;2.42;;;;;;;;;;10348809;28;20034;-87
2021/04/17 06:23:55;;;;;;;4.50;3.22;;;;;;;;;;10357893;28;20481;-86
2021/04/17 06:29:02;;;;;;;5.45;3.78;;;;;;;;;;10346834;28;20039;-87
2021/04/17 06:34:03;;;;;;;3.35;2.20;;;;;;;;;;10348275;28;20461;-86
2021/04/17 06:39:09;;;;;;;4.15;2.30;;;;;;;;;;10351556;28;20081;-86
2021/04/17 06:44:17;;;;;;;4.65;3.10;;;;;;;;;;10348608;28;20026;-86
2021/04/17 06:49:18;;;;;;;4.45;2.78;;;;;;;;;;10349132;28;20041;-85
2021/04/17 06:54:23;;;;;;;2.70;1.80;;;;;;;;;;10348289;28;20168;-87
2021/04/17 06:59:24;;;;;;;3.55;2.22;;;;;;;;;;10362994;28;20084;-85
2021/04/17 07:04:26;;;;;;;4.85;2.00;;;;;;;;;;10367447;28;20034;-83
2021/04/17 07:09:27;;;;;;;3.47;1.73;;;;;;;;;;10367521;28;20088;-86
2021/04/17 07:14:41;;;;;;;3.78;2.35;;;;;;;;;;10350564;28;20120;-87
2021/04/17 07:20:02;;;;;;;4.60;2.42;;;;;;;;;;10350602;28;20026;-87
2021/04/17 07:25:06;;;;;;;8.15;3.22;;;;;;;;;;10351219;28;20029;-87
2021/04/17 07:30:16;;;;;;;5.13;3.47;;;;;;;;;;10352082;28;20485;-86
2021/04/17 07:35:21;;;;;;;5.15;3.20;;;;;;;;;;10353216;28;20027;-86
2021/04/17 07:40:23;;;;;;;3.20;1.90;;;;;;;;;;10351461;28;20033;-87
2021/04/17 07:45:35;;;;;;;5.80;2.13;;;;;;;;;;10352383;28;20496;-86
2021/04/17 07:50:36;;;;;;;4.85;2.50;;;;;;;;;;10365651;28;20033;-84
2021/04/17 07:55:37;;;;;;;7.90;3.67;;;;;;;;;;10370551;28;20121;-86
2021/04/17 08:00:38;;;;;;;3.58;2.50;;;;;;;;;;10380873;28;20038;-87
2021/04/17 08:05:39;;;;;;;7.13;2.95;;;;;;;;;;10359779;28;20057;-86
2021/04/17 08:10:40;;;;;;;4.53;2.33;;;;;;;;;;10348368;28;20027;-89
2021/04/17 08:15:41;;;;;;;5.15;3.50;;;;;;;;;;10348390;28;20058;-87
2021/04/17 08:20:42;;;;;;;4.03;2.28;;;;;;;;;;10355125;28;20026;-86
2021/04/17 08:25:44;;;;;;;4.72;1.67;;;;;;;;;;10361719;28;20098;-83
2021/04/17 08:30:45;;;;;;;3.15;1.85;;;;;;;;;;10363375;28;20121;-84
2021/04/17 08:35:46;;;;;;;3.38;2.00;;;;;;;;;;10363341;28;20093;-84
2021/04/17 08:40:48;;;;;;;3.40;1.52;;;;;;;;;;10350552;28;20038;-83
2021/04/17 08:46:05;;;;;;;5.22;2.80;;;;;;;;;;10351119;28;20120;-83
2021/04/17 08:51:35;;;;;;;5.75;3.08;;;;;;;;;;10348208;28;20022;-83
2021/04/17 08:56:45;;;;;;;3.40;1.70;;;;;;;;;;10341526;22;20130;-86
2021/04/17 09:01:50;;;;;;;4.28;2.13;;;;;;;;;;10269118;28;20114;-88
2021/04/17 09:07:06;;;;;;;4.43;2.08;;;;;;;;;;10282739;29;20138;-86
2021/04/17 09:12:10;;;;;;;5.47;3.00;;;;;;;;;;10292233;28;20025;-86
2021/04/17 09:17:30;;;;;;;4.13;1.58;;;;;;;;;;10272592;28;20070;-86
2021/04/17 09:22:31;;;;;;;5.80;3.15;;;;;;;;;;10265293;28;20023;-86
2021/04/17 09:27:33;;;;;;;5.78;2.45;;;;;;;;;;10262720;28;20027;-85
2021/04/17 09:38:16;;;;;;;4.53;2.50;;;;;;;;;;10296195;28;20043;-85
2021/04/17 09:43:25;;;;;;;3.70;1.92;;;;;;;;;;10266567;28;20118;-84
2021/04/17 09:48:37;;;;;;;4.50;2.40;;;;;;;;;;10263620;28;20081;-85
2021/04/17 09:53:38;;;;;;;4.80;2.70;;;;;;;;;;10264416;28;20031;-87
2021/04/17 09:58:44;;;;;;;2.83;1.95;;;;;;;;;;10267776;28;20039;-86
2021/04/17 10:04:07;;;;;;;2.83;1.83;;;;;;;;;;10264376;28;20460;-85
2021/04/17 10:09:11;;;;;;;3.28;2.17;;;;;;;;;;10267028;28;20094;-87
2021/04/17 10:14:13;;;;;;;5.13;3.17;;;;;;;;;;10267081;28;20055;-85
2021/04/17 10:19:18;;;;;;;4.55;3.40;;;;;;;;;;10267507;28;20024;-85
2021/04/17 10:24:21;;;;;;;4.70;2.70;;;;;;;;;;10263383;28;20031;-85
2021/04/17 10:29:47;;;;;;;4.60;2.42;;;;;;;;;;10268914;28;20061;-85
2021/04/17 10:34:52;;;;;;;6.95;3.47;;;;;;;;;;10277590;28;20027;-85
2021/04/17 10:40:01;;;;;;;5.53;3.15;;;;;;;;;;10271799;28;20067;-85
2021/04/17 10:45:05;;;;;;;3.50;1.90;;;;;;;;;;10273328;28;20057;-85
2021/04/17 10:50:17;;;;;;;5.57;2.50;;;;;;;;;;10278447;28;20038;-84
2021/04/17 10:55:29;;;;;;;4.03;1.90;;;;;;;;;;10276532;28;20036;-85
2021/04/17 11:00:31;;;;;;;2.83;1.38;;;;;;;;;;10276123;28;20027;-85
2021/04/17 11:05:32;;;;;;;4.10;1.80;;;;;;;;;;10276843;28;20067;-85
2021/04/17 11:10:36;;;;;;;4.70;1.85;;;;;;;;;;10271928;28;20028;-85
2021/04/17 11:15:44;;;;;;;3.42;1.60;;;;;;;;;;10271168;28;20059;-85
2021/04/17 11:20:50;;;;;;;4.68;2.05;;;;;;;;;;10274858;28;20372;-86
2021/04/17 11:25:51;;;;;;;2.90;1.60;;;;;;;;;;10273503;28;20081;-85
2021/04/17 11:30:52;;;;;;;3.08;1.50;;;;;;;;;;10282032;28;20027;-85
2021/04/17 11:35:53;;;;;;;3.50;1.58;;;;;;;;;;10283921;28;20047;-85
2021/04/17 11:40:54;;;;;;;3.42;1.67;;;;;;;;;;10278789;28;20019;-84
2021/04/17 11:45:55;;;;;;;2.10;1.10;;;;;;;;;;10278135;28;20040;-85
2021/04/17 11:57:07;;;;;;;3.17;1.90;;;;;;;;;;10258402;28;20101;-88
2021/04/17 12:02:30;;;;;;;4.20;2.20;;;;;;;;;;10259449;28;20027;-88
2021/04/17 12:07:58;;;;;;;2.83;2.10;;;;;;;;;;10258898;28;20024;-88
2021/04/17 12:13:05;;;;;;;4.25;1.75;;;;;;;;;;10258283;28;20039;-88
2021/04/17 12:18:35;;;;;;;3.47;2.00;;;;;;;;;;10263253;29;20019;-89
2021/04/17 12:46:59;;;;;;;5.03;2.20;;;;;;;;;;10286070;28;20027;-88
2021/04/17 12:57:50;;;;;;;3.85;1.92;;;;;;;;;;10275179;28;20486;-87
2021/04/17 13:03:16;;;;;;;3.17;1.70;;;;;;;;;;10267592;28;20058;-87
2021/04/17 13:08:28;;;;;;;3.42;2.03;;;;;;;;;;10258687;28;20045;-88
2021/04/17 13:13:35;;;;;;;4.43;2.28;;;;;;;;;;10250592;29;20043;-87
2021/04/17 13:18:48;;;;;;;4.38;2.10;;;;;;;;;;10262391;28;20032;-88
2021/04/17 13:24:15;;;;;;;4.28;2.30;;;;;;;;;;10274418;29;20031;-87
2021/04/17 13:30:18;;;;;;;3.03;1.95;;;;;;;;;;10250461;28;20493;-88
2021/04/17 13:35:43;;;;;;;3.22;2.28;;;;;;;;;;10274641;28;20161;-87
2021/04/17 13:41:39;;;;;;;6.00;2.35;;;;;;;;;;10253642;29;20371;-87
2021/04/17 13:47:13;;;;;;;3.45;2.20;;;;;;;;;;10252441;28;20073;-87
2021/04/17 13:52:32;;;;;;;3.10;2.05;;;;;;;;;;10255234;28;20528;-88
2021/04/17 13:58:03;;;;;;;3.47;2.20;;;;;;;;;;10254058;28;20039;-88
2021/04/17 14:03:40;;;;;;;3.33;1.70;;;;;;;;;;10256209;28;20090;-88
2021/04/17 14:09:22;;;;;;;3.05;1.88;;;;;;;;;;10252943;28;20045;-89
2021/04/17 14:14:52;;;;;;;3.95;1.75;;;;;;;;;;10253900;28;20458;-88
2021/04/17 14:20:29;;;;;;;4.40;2.35;;;;;;;;;;10291337;28;20101;-88
2021/04/17 14:26:02;;;;;;;4.60;2.60;;;;;;;;;;10276458;28;20085;-88
2021/04/17 14:31:03;;;;;;;5.22;2.53;;;;;;;;;;10271080;28;20081;-88
2021/04/17 14:36:05;;;;;;;5.07;2.05;;;;;;;;;;10250350;28;20035;-88
2021/04/17 14:41:06;;;;;;;2.75;2.05;;;;;;;;;;10251253;28;20031;-88
2021/04/17 14:46:18;;;;;;;3.88;2.17;;;;;;;;;;10252370;28;20086;-88
2021/04/17 14:51:19;;;;;;;4.15;1.38;;;;;;;;;;10250297;28;20169;-89
2021/04/17 14:56:20;;;;;;;2.53;1.90;;;;;;;;;;10307891;23;20038;-84
2021/04/17 15:01:42;;;;;;;3.72;1.55;;;;;;;;;;10401493;28;20089;-83
2021/04/17 15:06:43;;;;;;;4.20;2.10;;;;;;;;;;10410108;28;20038;-84
2021/04/17 15:11:44;;;;;;;3.95;2.10;;;;;;;;;;10426343;28;20022;-84
2021/04/17 15:16:45;;;;;;;4.13;2.63;;;;;;;;;;10396776;28;20034;-84
2021/04/17 15:21:47;;;;;;;15.68;2.90;;;;;;;;;;10402115;28;20033;-83
2021/04/17 15:26:48;;;;;;;4.18;2.22;;;;;;;;;;10401649;28;20030;-82
2021/04/17 15:31:50;;;;;;;4.13;2.05;;;;;;;;;;10402963;28;20053;-82
2021/04/17 15:36:53;;;;;;;5.93;3.53;;;;;;;;;;10402793;28;20094;-83
2021/04/17 15:41:54;;;;;;;4.47;2.65;;;;;;;;;;10402341;28;20022;-83
2021/04/17 15:46:55;;;;;;;4.28;2.72;;;;;;;;;;10402378;28;20096;-83
2021/04/17 15:51:59;;;;;;;5.63;2.47;;;;;;;;;;10405139;28;20119;-82
2021/04/17 16:08:06;;;;;;;6.13;3.08;;;;;;;;;;10402236;28;20038;-82
2021/04/17 16:18:14;;;;;;;4.05;2.60;;;;;;;;;;10401447;28;20022;-83
2021/04/17 16:23:15;;;;;;;4.68;2.20;;;;;;;;;;10403330;28;20057;-82
2021/04/17 16:28:16;;;;;;;4.80;2.95;;;;;;;;;;10398223;28;20037;-82
2021/04/17 16:33:17;;;;;;;3.72;2.40;;;;;;;;;;10397903;28;20038;-82
2021/04/17 16:38:18;;;;;;;4.07;1.80;;;;;;;;;;10398388;28;20018;-83
2021/04/17 16:43:19;;;;;;;5.53;2.80;;;;;;;;;;10399056;28;20438;-81
2021/04/17 16:48:20;;;;;;;5.35;3.17;;;;;;;;;;10401436;28;20026;-81
2021/04/17 16:53:21;;;;;;;3.13;1.90;;;;;;;;;;10413065;28;20037;-82
2021/04/17 16:58:22;;;;;;;3.08;2.10;;;;;;;;;;10410307;28;20034;-83
2021/04/17 17:03:23;;;;;;;3.30;2.00;;;;;;;;;;10401553;28;20144;-82
2021/04/17 17:08:24;;;;;;;3.83;2.42;;;;;;;;;;10392111;28;20029;-84
2021/04/17 17:13:25;;;;;;;4.80;2.47;;;;;;;;;;10389933;28;20022;-84
2021/04/17 17:18:26;;;;;;;4.38;2.38;;;;;;;;;;10389459;28;20022;-83
2021/04/17 17:23:27;;;;;;;4.22;2.92;;;;;;;;;;10397764;28;20132;-84
2021/04/17 17:28:28;;;;;;;4.75;1.90;;;;;;;;;;10390988;28;20026;-84
2021/04/17 17:33:29;;;;;;;5.95;3.05;;;;;;;;;;10388063;28;20025;-84
2021/04/17 17:38:30;;;;;;;3.92;3.10;;;;;;;;;;10390749;28;20472;-84
2021/04/17 17:43:31;;;;;;;7.70;3.25;;;;;;;;;;10392859;28;20030;-84
2021/04/17 17:48:32;;;;;;;4.15;2.92;;;;;;;;;;10388230;28;20037;-86
2021/04/17 17:53:33;;;;;;;4.85;2.95;;;;;;;;;;10391623;28;20030;-84
2021/04/17 17:58:34;;;;;;;4.13;3.05;;;;;;;;;;10393063;28;20040;-83
2021/04/17 18:03:35;;;;;;;4.15;2.33;;;;;;;;;;10389681;28;20033;-84
2021/04/17 18:08:36;;;;;;;3.88;2.40;;;;;;;;;;10388231;28;20068;-84
2021/04/17 18:13:37;;;;;;;5.93;2.90;;;;;;;;;;10387104;28;20472;-84
2021/04/17 18:18:38;;;;;;;5.78;2.80;;;;;;;;;;10389122;28;20018;-84
2021/04/17 18:23:39;;;;;;;4.90;2.70;;;;;;;;;;10386955;28;20141;-84
2021/04/17 18:28:40;;;;;;;5.18;2.67;;;;;;;;;;10387803;28;20042;-83
2021/04/17 18:33:41;;;;;;;5.40;2.30;;;;;;;;;;10385596;28;20069;-83
2021/04/17 18:38:42;;;;;;;4.32;2.42;;;;;;;;;;10385805;28;20030;-85
2021/04/17 18:43:43;;;;;;;3.05;2.10;;;;;;;;;;10385818;28;20084;-84
2021/04/17 18:48:44;;;;;;;3.55;2.20;;;;;;;;;;10385722;28;20085;-85
2021/04/17 18:53:45;;;;;;;4.28;2.45;;;;;;;;;;10396732;28;20030;-81
2021/04/17 18:58:46;;;;;;;2.60;1.83;;;;;;;;;;10406677;28;20044;-82
2021/04/17 19:03:47;;;;;;;3.15;2.10;;;;;;;;;;10408532;28;20034;-83
2021/04/17 19:08:48;;;;;;;3.38;2.30;;;;;;;;;;10408893;28;20029;-83
2021/04/17 19:13:49;;;;;;;3.60;2.17;;;;;;;;;;10404599;28;20129;-84
2021/04/17 19:18:50;;;;;;;3.38;2.63;;;;;;;;;;10411276;28;20010;-83
2021/04/17 19:23:51;;;;;;;3.90;2.40;;;;;;;;;;10411510;28;20041;-83
2021/04/17 19:28:52;;;;;;;3.67;2.33;;;;;;;;;;10402149;28;20036;-84
2021/04/17 19:33:53;;;;;;;2.78;1.73;;;;;;;;;;10401757;28;20064;-84
2021/04/17 19:38:54;;;;;;;3.08;2.03;;;;;;;;;;10401574;28;20040;-84
2021/04/17 19:43:55;;;;;;;2.70;1.58;;;;;;;;;;10398221;28;20033;-84
2021/04/17 19:48:56;;;;;;;3.45;2.10;;;;;;;;;;10397065;28;20030;-85
2021/04/17 19:53:57;;;;;;;4.70;2.22;;;;;;;;;;10398620;28;20112;-85
2021/04/17 19:58:58;;;;;;;3.72;1.80;;;;;;;;;;10392933;28;20037;-83
2021/04/17 20:03:58;;;;;;;3.42;2.17;;;;;;;;;;10392305;28;20032;-85
2021/04/17 20:09:00;;;;;;;3.55;1.90;;;;;;;;;;10400207;28;20026;-84
2021/04/17 20:14:01;;;;;;;4.78;2.15;;;;;;;;;;10389723;28;20029;-84
2021/04/17 20:19:02;;;;;;;5.32;2.35;;;;;;;;;;10391332;28;20018;-84
2021/04/17 20:24:03;;;;;;;2.97;1.95;;;;;;;;;;10390199;28;20034;-83
2021/04/17 20:29:06;;;;;;;5.30;2.40;;;;;;;;;;10391886;28;20022;-83
2021/04/17 20:34:07;;;;;;;2.88;1.80;;;;;;;;;;10392643;28;20454;-84
2021/04/17 20:39:10;;;;;;;5.25;3.17;;;;;;;;;;10394829;28;20026;-82
2021/04/17 20:44:12;;;;;;;15.00;13.40;;;;;;;;;;10395915;28;20057;-84
2021/04/17 20:49:13;;;;;;;3.17;2.25;;;;;;;;;;10395236;28;20388;-84
2021/04/17 20:54:14;;;;;;;3.80;2.20;;;;;;;;;;10399033;28;20083;-80
2021/04/17 20:59:15;;;;;;;8.02;2.85;;;;;;;;;;10396003;28;20037;-83
2021/04/17 21:04:16;;;;;;;3.42;2.00;;;;;;;;;;10391710;28;20034;-84
2021/04/17 21:09:17;;;;;;;4.70;3.28;;;;;;;;;;10390304;28;20033;-83
2021/04/17 21:14:18;;;;;;;4.00;2.22;;;;;;;;;;10387328;28;20021;-84
2021/04/17 21:19:19;;;;;;;4.40;2.38;;;;;;;;;;10388101;28;20049;-84
2021/04/17 21:24:20;;;;;;;3.70;1.88;;;;;;;;;;10387280;28;20053;-84
2021/04/17 21:29:21;;;;;;;3.42;2.20;;;;;;;;;;10390879;28;20033;-84
2021/04/17 21:34:22;;;;;;;2.80;2.13;;;;;;;;;;10389897;28;20045;-84
2021/04/17 21:39:23;;;;;;;2.40;1.70;;;;;;;;;;10391003;28;20108;-84
2021/04/17 21:44:24;;;;;;;2.45;1.70;;;;;;;;;;10388971;28;20030;-83
2021/04/17 21:49:25;;;;;;;5.85;2.22;;;;;;;;;;10397766;28;20400;-82
2021/04/17 21:54:26;;;;;;;3.78;1.88;;;;;;;;;;10401274;28;20044;-83
2021/04/17 21:59:28;;;;;;;2.40;1.80;;;;;;;;;;10385301;28;20030;-84
2021/04/17 22:04:28;;;;;;;3.20;1.80;;;;;;;;;;10385873;28;20030;-85
2021/04/17 22:09:29;;;;;;;4.55;2.55;;;;;;;;;;10386151;28;20037;-85
2021/04/17 22:14:30;;;;;;;4.30;2.58;;;;;;;;;;10388953;28;20029;-83
2021/04/17 22:19:31;;;;;;;3.70;2.45;;;;;;;;;;10391883;28;20042;-84
2021/04/17 22:24:32;;;;;;;2.72;1.90;;;;;;;;;;10389611;28;20030;-84
2021/04/17 22:29:33;;;;;;;4.60;2.53;;;;;;;;;;10394623;28;20034;-83
2021/04/17 22:34:34;;;;;;;5.95;3.60;;;;;;;;;;10404617;28;20153;-83
2021/04/17 22:39:35;;;;;;;7.63;3.30;;;;;;;;;;10407920;28;20093;-82
2021/04/17 22:44:36;;;;;;;3.50;2.28;;;;;;;;;;10409654;28;20033;-82
2021/04/17 22:49:37;;;;;;;3.35;2.25;;;;;;;;;;10410769;28;20026;-82
2021/04/17 22:54:38;;;;;;;4.00;2.30;;;;;;;;;;10408382;28;20077;-83
2021/04/17 22:59:39;;;;;;;4.75;2.50;;;;;;;;;;10404637;28;20066;-84
2021/04/17 23:04:40;;;;;;;3.67;2.40;;;;;;;;;;10405502;28;20038;-83
2021/04/17 23:09:41;;;;;;;2.95;1.88;;;;;;;;;;10405101;28;20040;-81
2021/04/17 23:14:42;;;;;;;3.30;2.20;;;;;;;;;;10403572;28;20030;-83
2021/04/17 23:19:43;;;;;;;4.22;2.40;;;;;;;;;;10397020;28;20018;-81
2021/04/17 23:24:44;;;;;;;5.32;3.10;;;;;;;;;;10395363;28;20093;-84
2021/04/17 23:29:45;;;;;;;3.85;2.05;;;;;;;;;;10402673;28;20068;-82
2021/04/17 23:34:47;;;;;;;3.72;2.58;;;;;;;;;;10399905;28;20041;-83
2021/04/17 23:39:48;;;;;;;2.83;1.75;;;;;;;;;;10392356;28;20070;-82
2021/04/17 23:44:49;;;;;;;2.67;2.00;;;;;;;;;;10393835;28;20041;-83
2021/04/17 23:49:50;;;;;;;4.82;3.38;;;;;;;;;;10393337;28;20117;-83
2021/04/17 23:54:51;;;;;;;4.82;3.05;;;;;;;;;;10393516;28;20034;-84
2021/04/17 23:59:54;;;;;;;3.22;1.85;;;;;;;;;;10393125;28;20496;-83
